Time;durP1;ratioP1;P1;durP2;ratioP2;P2;SDS_P1;SDS_P2;PMS_P1;PMS_P2;Temp;Humidity;BMP_temperature;BMP_pressure;BME280_temperature;BME280_humidity;BME280_pressure;Samples;Min_cycle;Max_cycle;Signal;HPM_P1;HPM_P2
2022/09/03 00:00:34;;;;;;;4.45;0.85;;;20.40;99.90;;;;;;4880166;29;20060;-84
2022/09/03 00:03:17;;;;;;;5.50;1.10;;;20.30;99.90;;;;;;4915638;29;20024;-85
2022/09/03 00:05:55;;;;;;;3.03;0.93;;;20.40;99.90;;;;;;4915708;29;20051;-85
2022/09/03 00:08:38;;;;;;;4.05;0.80;;;20.40;99.90;;;;;;4915434;29;20032;-85
2022/09/03 00:11:26;;;;;;;4.70;0.93;;;20.50;99.90;;;;;;4908864;29;20051;-84
2022/09/03 00:14:03;;;;;;;4.90;0.73;;;20.40;99.90;;;;;;4915447;29;20102;-85
2022/09/03 00:17:04;;;;;;;8.07;1.70;;;20.40;99.90;;;;;;4896353;29;20036;-84
2022/09/03 00:19:39;;;;;;;2.58;0.88;;;20.40;99.90;;;;;;4908629;29;20672;-84
2022/09/03 00:22:11;;;;;;;2.75;1.00;;;20.40;99.90;;;;;;4915409;29;20084;-85
2022/09/03 00:24:40;;;;;;;3.13;0.90;;;20.30;99.90;;;;;;4915346;29;20055;-84
2022/09/03 00:27:13;;;;;;;5.05;0.98;;;20.30;99.90;;;;;;4915102;29;20036;-84
2022/09/03 00:29:48;;;;;;;2.65;0.80;;;20.30;99.90;;;;;;4915205;29;20034;-85
2022/09/03 00:32:21;;;;;;;4.53;1.15;;;20.30;99.90;;;;;;4915193;29;20067;-85
2022/09/03 00:34:55;;;;;;;5.55;0.90;;;20.40;99.90;;;;;;4908814;29;20028;-85
2022/09/03 00:37:21;;;;;;;5.85;1.10;;;20.40;99.90;;;;;;4915110;29;20044;-85
2022/09/03 00:39:47;;;;;;;2.78;0.88;;;20.30;99.90;;;;;;4914843;29;20072;-85
2022/09/03 00:42:27;;;;;;;4.60;0.93;;;20.30;99.90;;;;;;4914073;29;20032;-85
2022/09/03 00:44:59;;;;;;;2.10;0.82;;;20.30;99.90;;;;;;4910649;29;20060;-84
2022/09/03 00:47:57;;;;;;;2.80;0.90;;;20.30;99.90;;;;;;4914886;29;20060;-85
2022/09/03 00:50:49;;;;;;;6.05;1.20;;;20.30;99.90;;;;;;4914916;29;20071;-85
2022/09/03 00:53:29;;;;;;;4.28;1.00;;;20.30;99.90;;;;;;4914822;29;20028;-84
2022/09/03 00:56:26;;;;;;;5.50;1.13;;;20.30;99.90;;;;;;4914390;29;20028;-84
2022/09/03 00:59:00;;;;;;;6.15;1.10;;;20.20;99.90;;;;;;4910315;29;20123;-85
2022/09/03 01:01:34;;;;;;;9.10;1.48;;;20.20;99.90;;;;;;4914628;29;20026;-84
2022/09/03 01:04:09;;;;;;;5.20;1.05;;;20.20;99.90;;;;;;4914550;29;20378;-85
2022/09/03 01:07:07;;;;;;;4.63;1.20;;;20.20;99.90;;;;;;4892788;29;20036;-84
2022/09/03 01:09:47;;;;;;;5.68;1.30;;;20.20;99.90;;;;;;4910233;29;20035;-84
2022/09/03 01:12:34;;;;;;;4.25;1.08;;;20.20;99.90;;;;;;4911555;29;20035;-85
2022/09/03 01:15:06;;;;;;;4.03;0.95;;;20.20;99.90;;;;;;4914303;29;20028;-85
2022/09/03 01:17:50;;;;;;;3.08;1.10;;;20.10;99.90;;;;;;4908494;29;20493;-85
2022/09/03 01:20:22;;;;;;;3.63;1.33;;;20.10;99.90;;;;;;4914304;29;20030;-85
2022/09/03 01:23:23;;;;;;;4.28;1.30;;;20.10;99.90;;;;;;4896890;29;20462;-85
2022/09/03 01:25:52;;;;;;;3.97;1.42;;;20.10;99.90;;;;;;4908360;29;20031;-85
2022/09/03 01:28:41;;;;;;;11.98;1.55;;;20.10;99.90;;;;;;4914146;29;20052;-85
2022/09/03 01:31:14;;;;;;;3.17;1.40;;;20.00;99.90;;;;;;4914071;29;20028;-84
2022/09/03 01:33:49;;;;;;;5.33;1.70;;;19.90;99.90;;;;;;4913946;29;20180;-85
2022/09/03 01:36:53;;;;;;;5.15;1.75;;;19.90;99.90;;;;;;4896825;29;20719;-85
2022/09/03 01:39:47;;;;;;;3.33;1.47;;;19.90;99.90;;;;;;4910497;29;20063;-85
2022/09/03 01:42:28;;;;;;;3.67;1.38;;;20.00;99.90;;;;;;4894998;29;20367;-84
2022/09/03 01:45:36;;;;;;;4.38;2.08;;;19.90;99.90;;;;;;4909741;29;20032;-85
2022/09/03 01:48:12;;;;;;;3.33;1.70;;;19.90;99.90;;;;;;4818324;29;20096;-84
2022/09/03 01:50:44;;;;;;;4.32;1.45;;;19.90;99.90;;;;;;4818548;29;20038;-85
2022/09/03 01:53:30;;;;;;;5.05;1.80;;;19.80;99.90;;;;;;4872023;29;20035;-84
2022/09/03 01:56:10;;;;;;;3.55;1.70;;;19.80;99.90;;;;;;4913260;29;20028;-85
2022/09/03 01:58:42;;;;;;;6.50;1.77;;;19.80;99.90;;;;;;4913627;29;20040;-84
2022/09/03 02:01:15;;;;;;;2.78;1.70;;;19.80;99.90;;;;;;4907845;29;20046;-84
2022/09/03 02:03:44;;;;;;;4.90;1.80;;;19.80;99.90;;;;;;4913849;29;20061;-85
2022/09/03 02:06:11;;;;;;;4.75;3.05;;;19.80;99.90;;;;;;4913667;29;20509;-84
2022/09/03 02:08:38;;;;;;;4.88;2.03;;;19.80;99.90;;;;;;4913530;29;20039;-85
2022/09/03 02:11:07;;;;;;;4.82;1.83;;;19.80;99.90;;;;;;4913446;29;20120;-84
2022/09/03 02:13:48;;;;;;;4.13;1.90;;;19.80;99.90;;;;;;4913437;29;20024;-84
2022/09/03 02:16:19;;;;;;;4.20;1.90;;;19.80;99.90;;;;;;4896463;29;20082;-84
2022/09/03 02:18:54;;;;;;;3.30;1.80;;;19.80;99.90;;;;;;4913117;29;20501;-85
2022/09/03 02:21:24;;;;;;;3.72;1.90;;;19.80;99.90;;;;;;4913499;29;20025;-85
2022/09/03 02:23:50;;;;;;;4.28;2.08;;;19.80;99.90;;;;;;4913394;29;20020;-85
2022/09/03 02:26:22;;;;;;;6.35;2.05;;;19.80;99.90;;;;;;4913399;29;20054;-85
2022/09/03 02:28:49;;;;;;;4.28;1.65;;;19.80;99.90;;;;;;4913423;29;20043;-85
2022/09/03 02:31:15;;;;;;;5.72;2.10;;;19.80;99.90;;;;;;4913473;29;20477;-85
2022/09/03 02:33:43;;;;;;;5.00;2.70;;;19.80;99.90;;;;;;4913410;29;20088;-85
2022/09/03 02:36:11;;;;;;;4.20;2.25;;;19.80;99.90;;;;;;4913282;29;20021;-85
2022/09/03 02:38:39;;;;;;;3.72;2.25;;;19.80;99.90;;;;;;4913097;29;20044;-85
2022/09/03 02:41:05;;;;;;;5.78;2.60;;;19.80;99.90;;;;;;4913055;29;20024;-85
2022/09/03 02:44:02;;;;;;;7.57;2.58;;;19.80;99.90;;;;;;4913440;29;20409;-84
2022/09/03 02:46:42;;;;;;;4.72;2.55;;;19.80;99.90;;;;;;4880474;29;20604;-85
2022/09/03 02:49:08;;;;;;;7.65;2.75;;;19.80;99.90;;;;;;4913096;29;20048;-85
2022/09/03 02:51:36;;;;;;;4.55;2.67;;;19.80;99.90;;;;;;4895590;29;20037;-84
2022/09/03 02:54:02;;;;;;;4.70;2.30;;;19.80;99.90;;;;;;4913011;29;20024;-85
2022/09/03 02:56:28;;;;;;;4.25;2.15;;;19.80;99.90;;;;;;4913337;29;20032;-84
2022/09/03 02:58:54;;;;;;;5.07;2.47;;;19.80;99.90;;;;;;4913046;29;20036;-84
2022/09/03 03:01:20;;;;;;;4.65;2.20;;;19.80;99.90;;;;;;4896102;29;20028;-85
2022/09/03 03:03:46;;;;;;;4.50;2.30;;;19.80;99.90;;;;;;4913119;29;20028;-85
2022/09/03 03:06:13;;;;;;;4.75;2.20;;;19.80;99.90;;;;;;4897760;29;20063;-85
2022/09/03 03:08:39;;;;;;;5.15;2.42;;;19.90;99.90;;;;;;4916661;29;20016;-85
2022/09/03 03:11:05;;;;;;;6.35;2.58;;;19.90;99.90;;;;;;4916537;29;20469;-85
2022/09/03 03:13:32;;;;;;;4.18;2.55;;;19.90;99.90;;;;;;4916559;29;20017;-85
2022/09/03 03:16:05;;;;;;;5.70;2.25;;;19.90;99.90;;;;;;4916601;29;20031;-84
2022/09/03 03:18:31;;;;;;;4.22;2.40;;;19.80;99.90;;;;;;4899302;29;20044;-84
2022/09/03 03:20:56;;;;;;;3.95;2.40;;;19.80;99.90;;;;;;4916797;29;20036;-84
2022/09/03 03:23:22;;;;;;;4.18;2.30;;;19.80;99.90;;;;;;4899360;29;20029;-85
2022/09/03 03:25:48;;;;;;;3.97;2.17;;;19.90;99.90;;;;;;4916085;29;20028;-85
2022/09/03 03:28:14;;;;;;;4.65;2.35;;;19.90;99.90;;;;;;4916354;29;20028;-85
2022/09/03 03:30:41;;;;;;;4.07;2.38;;;20.00;99.90;;;;;;4916182;29;20063;-85
2022/09/03 03:33:08;;;;;;;4.63;2.50;;;20.00;99.90;;;;;;4916205;29;20237;-85
2022/09/03 03:35:35;;;;;;;3.50;2.38;;;20.00;99.90;;;;;;4916009;29;20119;-85
2022/09/03 03:38:01;;;;;;;7.45;2.80;;;20.00;99.90;;;;;;4916042;29;20127;-85
2022/09/03 03:40:30;;;;;;;7.45;3.10;;;20.00;99.90;;;;;;4915831;29;20032;-85
2022/09/03 03:42:57;;;;;;;5.72;2.70;;;20.00;99.90;;;;;;4915960;29;20020;-84
2022/09/03 03:45:22;;;;;;;5.55;2.65;;;19.90;99.90;;;;;;4916213;29;20397;-85
2022/09/03 03:47:48;;;;;;;4.72;2.72;;;19.90;99.90;;;;;;4915945;29;20016;-84
2022/09/03 03:50:14;;;;;;;4.22;2.13;;;19.90;99.90;;;;;;4915935;29;20032;-85
2022/09/03 03:52:40;;;;;;;6.38;2.65;;;19.90;99.90;;;;;;4915920;29;20009;-84
2022/09/03 03:55:06;;;;;;;5.60;2.90;;;19.90;99.90;;;;;;4915760;29;20397;-84
2022/09/03 03:57:32;;;;;;;8.27;3.88;;;19.90;99.90;;;;;;4915723;29;20099;-85
2022/09/03 03:59:57;;;;;;;4.90;3.22;;;19.90;99.90;;;;;;4915561;29;20032;-84
2022/09/03 04:02:23;;;;;;;7.40;3.30;;;19.90;99.90;;;;;;4921858;29;20100;-84
2022/09/03 04:04:48;;;;;;;5.57;3.22;;;19.80;99.90;;;;;;4925672;29;20087;-84
2022/09/03 04:07:14;;;;;;;6.20;2.90;;;19.80;99.90;;;;;;4926125;29;20057;-84
2022/09/03 04:09:40;;;;;;;7.60;3.63;;;19.80;99.90;;;;;;4926366;29;20099;-85
2022/09/03 04:12:07;;;;;;;12.35;4.03;;;19.70;99.90;;;;;;4926999;29;20130;-85
2022/09/03 04:14:34;;;;;;;10.35;3.47;;;19.70;99.90;;;;;;4925859;29;20473;-84
2022/09/03 04:17:00;;;;;;;6.40;3.50;;;19.70;99.90;;;;;;4925052;29;20159;-84
2022/09/03 04:19:29;;;;;;;7.53;3.97;;;19.70;99.90;;;;;;4925927;29;20320;-84
2022/09/03 04:21:55;;;;;;;12.23;3.90;;;19.70;99.90;;;;;;4922108;29;20039;-85
2022/09/03 04:24:21;;;;;;;7.45;4.07;;;19.80;99.90;;;;;;4925067;29;20035;-84
2022/09/03 04:26:47;;;;;;;11.98;4.07;;;19.80;99.90;;;;;;4926319;29;20048;-84
2022/09/03 04:29:13;;;;;;;6.05;4.13;;;19.70;99.90;;;;;;4925993;29;20164;-85
2022/09/03 04:32:51;;;;;;;6.40;3.75;;;19.70;99.90;;;;;;4904812;29;20204;-85
2022/09/03 04:34:24;;;;;;;9.75;4.18;;;19.80;99.90;;;;;;4925291;29;20032;-84
2022/09/03 04:36:49;;;;;;;11.07;5.10;;;19.70;99.90;;;;;;4908575;29;20024;-84
2022/09/03 04:39:15;;;;;;;5.55;4.30;;;19.70;99.90;;;;;;4925258;29;20268;-84
2022/09/03 04:41:40;;;;;;;11.07;5.85;;;19.70;99.90;;;;;;4924913;29;20032;-84
2022/09/03 04:44:06;;;;;;;9.10;4.80;;;19.70;99.90;;;;;;4924352;29;20032;-85
2022/09/03 04:46:32;;;;;;;10.07;4.38;;;19.80;99.90;;;;;;4925035;29;20024;-84
2022/09/03 04:48:58;;;;;;;8.18;4.30;;;19.80;99.90;;;;;;4901325;29;20036;-85
2022/09/03 04:51:28;;;;;;;10.57;4.47;;;19.80;99.90;;;;;;4925575;29;20083;-84
2022/09/03 04:53:57;;;;;;;8.40;4.55;;;19.80;99.90;;;;;;4925230;29;20018;-84
2022/09/03 04:56:28;;;;;;;7.45;4.95;;;19.80;99.90;;;;;;4925877;29;20093;-84
2022/09/03 04:59:02;;;;;;;8.95;5.90;;;19.90;99.90;;;;;;4924813;29;20032;-85
2022/09/03 05:01:30;;;;;;;11.70;6.20;;;19.90;99.90;;;;;;4925301;29;20055;-84
2022/09/03 05:03:57;;;;;;;11.70;7.38;;;19.80;99.90;;;;;;4925270;29;20030;-84
2022/09/03 05:06:24;;;;;;;11.40;5.30;;;19.80;99.90;;;;;;4925088;29;20401;-84
2022/09/03 05:08:51;;;;;;;8.68;5.05;;;19.70;99.90;;;;;;4925754;29;20182;-85
2022/09/03 05:11:18;;;;;;;10.07;4.40;;;19.70;99.90;;;;;;4925669;29;20039;-84
2022/09/03 05:13:48;;;;;;;9.95;3.95;;;19.70;99.90;;;;;;4925583;29;20023;-84
2022/09/03 05:16:14;;;;;;;8.07;4.05;;;19.70;99.90;;;;;;4925393;29;20047;-85
2022/09/03 05:18:41;;;;;;;11.27;4.15;;;19.80;99.90;;;;;;4924582;29;20047;-78
2022/09/03 05:21:11;;;;;;;12.00;4.00;;;19.80;99.90;;;;;;4924674;29;20040;-78
2022/09/03 05:23:42;;;;;;;9.88;4.95;;;19.80;99.90;;;;;;4923602;29;20070;-78
2022/09/03 05:26:16;;;;;;;9.35;4.38;;;19.80;99.90;;;;;;4913772;29;20087;-78
2022/09/03 05:28:43;;;;;;;9.50;4.45;;;19.70;99.90;;;;;;4912953;29;20043;-78
2022/09/03 05:31:17;;;;;;;9.88;4.22;;;19.70;99.90;;;;;;4913576;29;20024;-78
2022/09/03 05:33:46;;;;;;;10.30;4.40;;;19.70;99.90;;;;;;4913572;29;20107;-78
2022/09/03 05:36:17;;;;;;;8.15;4.60;;;19.70;99.90;;;;;;4913200;29;20016;-78
2022/09/03 05:38:44;;;;;;;6.38;4.07;;;19.70;99.90;;;;;;4913424;29;20494;-78
2022/09/03 05:41:11;;;;;;;8.98;4.38;;;19.70;99.90;;;;;;4913441;29;20366;-78
2022/09/03 05:43:38;;;;;;;9.70;4.70;;;19.70;99.90;;;;;;4913316;29;20024;-78
2022/09/03 05:46:10;;;;;;;7.15;3.70;;;19.80;99.90;;;;;;4913427;29;20027;-78
2022/09/03 05:48:37;;;;;;;8.82;4.25;;;19.80;99.90;;;;;;4913182;29;20023;-78
2022/09/03 05:51:08;;;;;;;9.60;4.00;;;19.80;99.90;;;;;;4913462;29;20057;-79
2022/09/03 05:53:36;;;;;;;6.15;3.53;;;19.80;99.90;;;;;;4913716;29;20028;-79
2022/09/03 05:56:11;;;;;;;6.28;3.75;;;19.80;99.90;;;;;;4913477;29;20477;-79
2022/09/03 05:58:44;;;;;;;8.05;4.18;;;19.80;99.90;;;;;;4908561;29;20309;-79
2022/09/03 06:01:18;;;;;;;10.43;4.13;;;19.80;99.90;;;;;;4913722;29;20035;-79
2022/09/03 06:03:46;;;;;;;5.95;4.25;;;19.80;99.90;;;;;;4910824;29;20047;-78
2022/09/03 06:06:13;;;;;;;7.68;4.50;;;19.80;99.90;;;;;;4912848;29;20292;-78
2022/09/03 06:08:40;;;;;;;10.32;4.15;;;19.80;99.90;;;;;;4913261;29;20114;-78
2022/09/03 06:11:06;;;;;;;9.35;4.75;;;19.90;99.90;;;;;;4912782;29;20508;-78
2022/09/03 06:13:33;;;;;;;10.73;3.85;;;19.90;99.90;;;;;;4913488;29;20020;-78
2022/09/03 06:16:01;;;;;;;16.48;4.57;;;20.00;99.90;;;;;;4913303;29;20445;-79
2022/09/03 06:18:27;;;;;;;8.20;4.25;;;20.00;99.90;;;;;;4913587;29;20032;-80
2022/09/03 06:20:58;;;;;;;13.68;4.10;;;20.10;99.90;;;;;;4904894;29;20104;-78
2022/09/03 06:23:24;;;;;;;12.00;4.32;;;20.10;99.90;;;;;;4909111;29;20032;-78
2022/09/03 06:26:09;;;;;;;16.48;4.70;;;20.10;99.90;;;;;;4907757;29;20035;-78
2022/09/03 06:28:37;;;;;;;13.38;5.38;;;20.10;99.90;;;;;;4909227;29;20510;-78
2022/09/03 06:31:05;;;;;;;9.90;4.82;;;20.10;99.90;;;;;;4914611;29;20535;-78
2022/09/03 06:33:33;;;;;;;11.93;4.93;;;20.20;99.90;;;;;;4917419;29;20043;-79
2022/09/03 06:36:01;;;;;;;9.68;4.63;;;20.20;99.90;;;;;;4913946;29;20024;-79
2022/09/03 06:38:30;;;;;;;12.35;4.60;;;20.20;99.90;;;;;;4913236;29;20032;-79
2022/09/03 06:41:00;;;;;;;9.75;4.20;;;20.30;99.90;;;;;;4916039;29;20028;-78
2022/09/03 06:43:28;;;;;;;9.05;4.25;;;20.40;99.90;;;;;;4916924;29;20044;-78
2022/09/03 06:45:59;;;;;;;12.18;4.57;;;20.50;99.90;;;;;;4916747;29;20028;-78
2022/09/03 06:48:26;;;;;;;12.90;4.65;;;20.60;99.90;;;;;;4917064;29;20362;-78
2022/09/03 06:51:15;;;;;;;14.02;4.80;;;20.70;99.90;;;;;;4917058;29;20021;-78
2022/09/03 06:53:43;;;;;;;10.02;3.80;;;20.80;99.90;;;;;;4911363;29;20031;-78
2022/09/03 06:56:15;;;;;;;10.30;4.20;;;20.90;99.90;;;;;;4916757;29;20409;-78
2022/09/03 06:58:43;;;;;;;9.77;4.05;;;21.10;99.90;;;;;;4916124;29;20031;-78
2022/09/03 07:01:18;;;;;;;9.98;4.50;;;21.10;99.90;;;;;;4916095;29;20478;-78
2022/09/03 07:03:44;;;;;;;9.13;5.47;;;21.20;99.90;;;;;;4911864;29;20016;-78
2022/09/03 07:06:16;;;;;;;9.43;5.22;;;21.10;99.90;;;;;;4915673;29;20123;-78
2022/09/03 07:08:42;;;;;;;10.23;5.50;;;21.10;99.90;;;;;;4915654;29;20020;-78
2022/09/03 07:11:11;;;;;;;10.60;5.03;;;21.10;99.90;;;;;;4915472;29;20036;-78
2022/09/03 07:13:42;;;;;;;10.23;4.38;;;21.10;99.90;;;;;;4916364;29;20016;-78
2022/09/03 07:16:16;;;;;;;6.47;4.40;;;21.10;99.90;;;;;;4916559;29;20028;-78
2022/09/03 07:18:43;;;;;;;12.98;4.50;;;21.10;99.90;;;;;;4916581;29;20028;-78
2022/09/03 07:21:12;;;;;;;10.68;3.97;;;21.10;99.90;;;;;;4916754;29;20028;-78
2022/09/03 07:23:38;;;;;;;6.55;3.95;;;21.30;99.90;;;;;;4916311;29;20035;-78
2022/09/03 07:26:07;;;;;;;9.45;4.00;;;21.30;99.90;;;;;;4915972;29;20036;-78
2022/09/03 07:28:35;;;;;;;9.65;3.45;;;21.30;99.90;;;;;;4916504;29;20028;-78
2022/09/03 07:31:04;;;;;;;10.45;3.90;;;21.30;99.90;;;;;;4916006;29;20521;-78
2022/09/03 07:33:30;;;;;;;6.43;4.18;;;21.30;99.90;;;;;;4916203;29;20615;-78
2022/09/03 07:36:05;;;;;;;12.40;4.32;;;21.30;99.90;;;;;;4916149;29;20026;-78
2022/09/03 07:38:32;;;;;;;8.70;4.18;;;21.40;99.90;;;;;;4916193;29;20036;-78
2022/09/03 07:40:59;;;;;;;7.43;4.20;;;21.50;99.90;;;;;;4915917;29;20525;-77
2022/09/03 07:43:32;;;;;;;8.52;4.13;;;21.40;99.90;;;;;;4916349;29;20035;-78
2022/09/03 07:46:00;;;;;;;8.53;4.00;;;21.40;99.90;;;;;;4915894;29;20241;-78
2022/09/03 07:48:26;;;;;;;8.77;3.70;;;21.50;99.90;;;;;;4915743;29;20160;-78
2022/09/03 07:50:52;;;;;;;6.15;3.65;;;21.80;99.90;;;;;;4915476;29;20285;-78
2022/09/03 07:53:19;;;;;;;10.07;4.20;;;22.00;99.90;;;;;;4916069;29;20059;-78
2022/09/03 07:55:45;;;;;;;6.63;4.15;;;22.10;99.90;;;;;;4915670;29;20082;-78
2022/09/03 07:58:12;;;;;;;7.82;3.65;;;22.20;99.90;;;;;;4915586;29;20031;-78
2022/09/03 08:00:39;;;;;;;8.68;3.72;;;22.30;99.90;;;;;;4915988;29;20028;-78
2022/09/03 08:03:07;;;;;;;6.32;3.33;;;22.40;99.90;;;;;;4915586;29;20513;-78
2022/09/03 08:05:35;;;;;;;9.77;4.32;;;22.50;99.90;;;;;;4915619;29;20024;-78
2022/09/03 08:08:02;;;;;;;7.53;3.70;;;22.40;99.90;;;;;;4915592;29;20236;-78
2022/09/03 08:10:29;;;;;;;7.43;3.75;;;22.40;99.90;;;;;;4915317;29;20024;-78
2022/09/03 08:12:57;;;;;;;8.38;3.58;;;22.40;99.90;;;;;;4915591;29;20051;-78
2022/09/03 08:15:23;;;;;;;10.60;3.83;;;22.30;99.90;;;;;;4915369;29;20241;-78
2022/09/03 08:17:48;;;;;;;11.13;3.97;;;22.20;99.90;;;;;;4915474;29;20036;-77
2022/09/03 08:20:14;;;;;;;8.45;3.80;;;22.10;99.90;;;;;;4915270;29;20099;-78
2022/09/03 08:22:40;;;;;;;6.25;3.70;;;22.00;99.90;;;;;;4915473;29;20050;-78
2022/09/03 08:25:06;;;;;;;8.10;4.18;;;21.80;99.90;;;;;;4914759;29;20032;-78
2022/09/03 08:27:32;;;;;;;11.45;4.00;;;21.60;99.90;;;;;;4914772;29;20200;-78
2022/09/03 08:29:58;;;;;;;9.27;4.05;;;21.60;99.90;;;;;;4915021;29;20590;-78
2022/09/03 08:32:23;;;;;;;13.75;4.05;;;21.70;99.90;;;;;;4914920;29;20032;-78
2022/09/03 08:34:51;;;;;;;8.10;4.38;;;21.90;99.90;;;;;;4915063;29;20257;-78
2022/09/03 08:37:17;;;;;;;13.65;4.75;;;22.00;99.90;;;;;;4915006;29;20025;-78
2022/09/03 08:39:43;;;;;;;8.40;4.60;;;22.00;99.90;;;;;;4914837;29;20039;-78
2022/09/03 08:42:27;;;;;;;8.63;4.05;;;22.20;99.90;;;;;;4914867;29;20570;-78
2022/09/03 08:45:01;;;;;;;9.20;3.92;;;22.30;99.90;;;;;;4914839;29;20028;-78
2022/09/03 08:47:53;;;;;;;13.02;4.65;;;22.40;99.90;;;;;;4914716;29;20111;-78
2022/09/03 08:50:58;;;;;;;16.10;4.40;;;22.50;99.90;;;;;;4908609;29;20047;-78
2022/09/03 08:53:44;;;;;;;11.77;4.60;;;22.70;99.90;;;;;;4868230;29;20492;-78
2022/09/03 08:56:13;;;;;;;13.55;4.15;;;22.80;99.90;;;;;;4889710;29;20107;-78
2022/09/03 08:58:43;;;;;;;9.57;4.50;;;22.70;99.90;;;;;;4914577;29;20146;-78
2022/09/03 09:01:15;;;;;;;12.13;5.00;;;22.70;99.90;;;;;;4914878;29;20055;-78
2022/09/03 09:03:49;;;;;;;9.77;4.13;;;22.50;99.90;;;;;;4892535;29;20514;-78
2022/09/03 09:06:27;;;;;;;9.65;3.95;;;22.40;99.90;;;;;;4914304;29;20446;-78
2022/09/03 09:09:20;;;;;;;12.55;5.07;;;22.40;99.90;;;;;;4914108;29;20031;-78
2022/09/03 09:12:04;;;;;;;8.88;4.50;;;22.50;99.90;;;;;;4913961;29;20485;-78
2022/09/03 09:14:30;;;;;;;;;;;22.40;99.90;;;;;;4895983;29;20040;-78
2022/09/03 09:17:18;;;;;;;10.07;4.57;;;22.50;99.90;;;;;;4914145;29;19907;-78
2022/09/03 09:19:47;;;;;;;11.52;5.10;;;22.50;99.90;;;;;;4863401;29;20051;-78
2022/09/03 09:22:34;;;;;;;12.05;4.28;;;22.50;99.90;;;;;;4914022;29;20032;-78
2022/09/03 09:25:04;;;;;;;9.95;4.55;;;22.50;99.90;;;;;;4909154;29;20124;-79
2022/09/03 09:27:31;;;;;;;13.23;5.00;;;22.60;99.90;;;;;;4913813;29;20127;-78
2022/09/03 09:30:00;;;;;;;13.95;5.57;;;22.60;99.90;;;;;;4914137;29;20020;-78
2022/09/03 09:32:26;;;;;;;9.90;4.97;;;22.70;99.90;;;;;;4913899;29;20048;-78
2022/09/03 09:34:53;;;;;;;15.32;5.20;;;22.60;99.90;;;;;;4913871;29;20031;-78
2022/09/03 09:37:20;;;;;;;11.27;5.38;;;22.40;99.90;;;;;;4914116;29;20024;-78
2022/09/03 09:39:59;;;;;;;10.63;5.78;;;22.50;99.90;;;;;;4913799;29;20063;-78
2022/09/03 09:42:26;;;;;;;11.18;5.22;;;22.60;99.90;;;;;;4913786;29;20517;-78
2022/09/03 09:44:52;;;;;;;11.98;5.35;;;22.60;99.90;;;;;;4913942;29;20067;-78
2022/09/03 09:47:37;;;;;;;11.30;5.32;;;22.80;99.90;;;;;;4913542;29;20125;-78
2022/09/03 09:50:14;;;;;;;10.75;5.10;;;23.00;99.90;;;;;;4913591;29;20374;-78
2022/09/03 09:52:40;;;;;;;9.30;5.25;;;23.00;99.90;;;;;;4913621;29;20027;-78
2022/09/03 09:55:09;;;;;;;10.95;5.28;;;23.10;99.90;;;;;;4892425;29;20102;-78
2022/09/03 09:57:36;;;;;;;16.88;6.65;;;23.30;99.90;;;;;;4913660;29;20111;-78
2022/09/03 10:00:09;;;;;;;10.68;4.18;;;23.20;99.90;;;;;;4913655;29;20035;-78
2022/09/03 10:02:36;;;;;;;10.63;3.45;;;22.80;99.90;;;;;;4913651;29;20059;-78
2022/09/03 10:05:32;;;;;;;8.80;2.67;;;22.50;99.90;;;;;;4913387;29;20063;-78
2022/09/03 10:08:04;;;;;;;10.30;3.15;;;22.50;99.90;;;;;;4898217;29;20036;-78
2022/09/03 10:10:36;;;;;;;15.75;3.05;;;22.50;99.90;;;;;;4913129;29;20028;-78
2022/09/03 10:13:11;;;;;;;9.30;2.08;;;22.70;99.90;;;;;;4913728;29;20055;-78
2022/09/03 10:15:55;;;;;;;8.63;2.47;;;22.80;99.90;;;;;;4896364;29;20028;-78
2022/09/03 10:18:56;;;;;;;9.80;2.53;;;22.60;99.90;;;;;;4913455;29;20032;-78
2022/09/03 10:22:02;;;;;;;8.70;2.67;;;22.40;99.90;;;;;;4885168;29;20040;-78
2022/09/03 10:24:39;;;;;;;7.15;2.75;;;22.40;99.90;;;;;;4825498;29;20034;-78
2022/09/03 10:27:11;;;;;;;13.02;3.10;;;22.40;99.90;;;;;;4903559;29;20078;-78
2022/09/03 10:29:39;;;;;;;9.40;2.50;;;22.50;99.90;;;;;;4913207;29;20367;-78
2022/09/03 10:32:08;;;;;;;8.60;2.85;;;22.70;99.90;;;;;;4911756;29;20116;-78
2022/09/03 10:34:56;;;;;;;13.65;2.63;;;22.80;99.90;;;;;;4913221;29;20392;-78
2022/09/03 10:37:53;;;;;;;8.80;2.40;;;22.60;99.90;;;;;;4913209;29;20035;-78
2022/09/03 10:40:39;;;;;;;9.38;2.60;;;22.50;99.90;;;;;;4913071;29;20051;-78
2022/09/03 10:43:22;;;;;;;7.50;2.22;;;22.50;99.90;;;;;;4908493;29;20028;-79
2022/09/03 10:46:29;;;;;;;5.47;2.30;;;22.70;99.90;;;;;;4913329;29;20029;-78
2022/09/03 10:49:23;;;;;;;11.10;2.70;;;22.70;99.90;;;;;;4906644;29;20055;-78
2022/09/03 10:52:10;;;;;;;6.87;2.30;;;22.70;99.90;;;;;;4913175;29;20099;-78
2022/09/03 10:54:57;;;;;;;6.13;1.95;;;22.60;99.90;;;;;;4913242;29;20032;-78
2022/09/03 10:57:45;;;;;;;11.48;2.28;;;22.50;99.90;;;;;;4913586;29;20024;-78
2022/09/03 11:00:13;;;;;;;12.50;2.75;;;22.50;99.90;;;;;;4912170;29;20069;-79
2022/09/03 11:02:45;;;;;;;7.40;1.77;;;22.50;99.90;;;;;;4907210;29;20036;-79
2022/09/03 11:05:17;;;;;;;8.95;2.65;;;22.60;99.90;;;;;;4891093;29;20032;-78
2022/09/03 11:07:50;;;;;;;9.95;2.45;;;22.80;99.90;;;;;;4913095;29;20028;-78
2022/09/03 11:10:19;;;;;;;7.88;2.13;;;22.70;99.90;;;;;;4912249;29;20035;-78
2022/09/03 11:12:54;;;;;;;9.20;2.50;;;22.90;99.90;;;;;;4911365;29;20032;-78
2022/09/03 11:15:36;;;;;;;8.27;2.22;;;23.00;99.90;;;;;;4912817;29;20083;-79
2022/09/03 11:18:14;;;;;;;9.35;2.20;;;23.20;99.90;;;;;;4912406;29;20039;-78
2022/09/03 11:20:41;;;;;;;7.68;2.35;;;23.30;99.90;;;;;;4912777;29;20048;-76
2022/09/03 11:23:12;;;;;;;9.23;2.25;;;23.10;99.90;;;;;;4912977;29;20168;-76
2022/09/03 11:26:02;;;;;;;9.95;2.15;;;23.00;99.90;;;;;;4913621;29;20020;-76
2022/09/03 11:28:54;;;;;;;4.13;1.75;;;22.70;99.90;;;;;;4912426;29;20056;-76
2022/09/03 11:31:46;;;;;;;5.20;1.83;;;22.80;99.90;;;;;;4911657;29;20622;-76
2022/09/03 11:34:15;;;;;;;8.23;2.00;;;22.80;99.90;;;;;;4915776;29;20024;-77
2022/09/03 11:36:41;;;;;;;6.45;1.80;;;22.80;99.90;;;;;;4916189;29;20043;-77
2022/09/03 11:39:34;;;;;;;5.63;1.88;;;22.90;99.80;;;;;;4915965;29;20398;-77
2022/09/03 11:42:05;;;;;;;11.60;2.72;;;22.90;99.90;;;;;;4915916;29;20436;-77
2022/09/03 11:44:41;;;;;;;10.88;2.38;;;23.10;99.60;;;;;;4915815;29;20024;-76
2022/09/03 11:47:20;;;;;;;10.57;2.10;;;22.90;99.60;;;;;;4910774;29;20062;-77
2022/09/03 11:49:52;;;;;;;8.85;2.35;;;22.80;99.90;;;;;;4915688;29;20066;-76
2022/09/03 11:52:29;;;;;;;5.97;2.25;;;23.00;99.90;;;;;;4915719;29;20197;-77
2022/09/03 11:54:55;;;;;;;11.18;2.65;;;23.20;99.90;;;;;;4915275;29;20071;-76
2022/09/03 11:57:31;;;;;;;8.30;2.45;;;23.30;99.90;;;;;;4898122;29;20032;-76
2022/09/03 12:00:11;;;;;;;7.15;2.00;;;23.40;99.90;;;;;;4915545;29;20127;-77
2022/09/03 12:02:44;;;;;;;9.90;2.47;;;23.60;99.90;;;;;;4909692;29;20027;-76
2022/09/03 12:05:34;;;;;;;5.75;2.20;;;23.40;99.90;;;;;;4915585;29;20039;-76
2022/09/03 12:08:18;;;;;;;6.82;2.25;;;23.50;99.90;;;;;;4915413;29;20405;-76
2022/09/03 12:11:13;;;;;;;7.85;2.15;;;23.50;99.90;;;;;;4914900;29;20485;-76
2022/09/03 12:13:57;;;;;;;10.63;2.47;;;23.50;99.90;;;;;;4915172;29;20333;-77
2022/09/03 12:16:38;;;;;;;11.38;2.95;;;23.30;99.90;;;;;;4915293;29;20028;-76
2022/09/03 12:19:12;;;;;;;7.97;2.15;;;23.50;99.90;;;;;;4909367;29;20036;-76
2022/09/03 12:21:39;;;;;;;5.45;2.17;;;23.50;99.90;;;;;;4893262;29;20438;-76
2022/09/03 12:24:06;;;;;;;9.80;2.88;;;23.60;99.90;;;;;;4915193;29;20024;-77
2022/09/03 12:26:39;;;;;;;11.40;2.25;;;23.80;99.90;;;;;;4915114;29;20139;-77
2022/09/03 12:29:05;;;;;;;6.35;2.15;;;23.90;99.90;;;;;;4915002;29;20028;-77
2022/09/03 12:31:42;;;;;;;6.03;2.00;;;23.80;99.50;;;;;;4915077;29;20412;-76
2022/09/03 12:34:15;;;;;;;7.18;2.17;;;23.60;99.60;;;;;;4914885;29;20030;-78
2022/09/03 12:36:43;;;;;;;6.85;2.25;;;23.60;99.70;;;;;;4914065;29;20025;-78
2022/09/03 12:39:16;;;;;;;8.13;2.33;;;23.40;99.90;;;;;;4914558;29;20080;-78
2022/09/03 12:42:02;;;;;;;6.22;2.08;;;23.60;99.50;;;;;;4915252;29;20083;-77
2022/09/03 12:44:34;;;;;;;8.02;2.55;;;23.80;98.90;;;;;;4915013;29;20520;-77
2022/09/03 12:47:10;;;;;;;4.70;1.65;;;23.80;98.60;;;;;;4914900;29;20127;-78
2022/09/03 12:49:41;;;;;;;7.57;2.10;;;24.00;98.60;;;;;;4910006;29;20080;-77
2022/09/03 12:52:20;;;;;;;5.70;1.80;;;24.00;98.00;;;;;;4914741;29;20031;-77
2022/09/03 12:54:54;;;;;;;4.57;1.85;;;24.00;98.00;;;;;;4911288;29;20030;-81
2022/09/03 12:57:23;;;;;;;;;;;24.00;97.50;;;;;;4915784;29;20309;-81
2022/09/03 12:59:53;;;;;;;6.30;1.90;;;23.90;97.40;;;;;;4914419;29;19974;-82
2022/09/03 13:02:41;;;;;;;4.25;1.63;;;24.30;96.70;;;;;;4914678;29;20428;-81
2022/09/03 13:05:15;;;;;;;6.07;1.92;;;24.00;96.70;;;;;;4912957;29;20020;-82
2022/09/03 13:07:47;;;;;;;6.25;2.03;;;23.80;96.70;;;;;;4914833;29;20107;-81
2022/09/03 13:10:36;;;;;;;5.65;1.92;;;23.80;96.90;;;;;;4914089;29;20409;-81
2022/09/03 13:13:27;;;;;;;5.50;1.88;;;24.20;96.40;;;;;;4914474;29;20088;-82
2022/09/03 13:16:04;;;;;;;6.35;1.80;;;24.50;96.20;;;;;;4908587;29;20106;-82